sensor_id;sensor_type;location;lat;lon;timestamp;pressure;altitude;pressure_sealevel;temperature;humidity
6224;BME280;3145;42.726;23.342;2023-04-06T00:00:22;73677.13;;;-142.70;69.54
6224;BME280;3145;42.726;23.342;2023-04-06T00:02:49;73677.13;;;-142.70;69.34
6224;BME280;3145;42.726;23.342;2023-04-06T00:05:17;73673.09;;;-142.70;69.82
6224;BME280;3145;42.726;23.342;2023-04-06T00:07:45;73659.00;;;-142.70;70.23
6224;BME280;3145;42.726;23.342;2023-04-06T00:10:12;73654.97;;;-142.70;69.42
6224;BME280;3145;42.726;23.342;2023-04-06T00:12:39;73642.88;;;-142.70;69.47
6224;BME280;3145;42.726;23.342;2023-04-06T00:15:06;73644.88;;;-142.70;69.39
6224;BME280;3145;42.726;23.342;2023-04-06T00:17:33;73648.91;;;-142.70;69.39
6224;BME280;3145;42.726;23.342;2023-04-06T00:20:00;73642.88;;;-142.70;68.99
6224;BME280;3145;42.726;23.342;2023-04-06T00:22:27;73630.78;;;-142.70;68.96
6224;BME280;3145;42.726;23.342;2023-04-06T00:24:56;73620.69;;;-142.70;69.46
6224;BME280;3145;42.726;23.342;2023-04-06T00:27:22;73628.75;;;-142.70;68.95
6224;BME280;3145;42.726;23.342;2023-04-06T00:29:49;73624.72;;;-142.70;68.29
6224;BME280;3145;42.726;23.342;2023-04-06T00:32:16;73624.72;;;-142.70;68.94
6224;BME280;3145;42.726;23.342;2023-04-06T00:34:43;73624.72;;;-142.70;68.76
6224;BME280;3145;42.726;23.342;2023-04-06T00:37:10;73628.75;;;-142.70;68.76
6224;BME280;3145;42.726;23.342;2023-04-06T00:39:37;73614.66;;;-142.70;68.76
6224;BME280;3145;42.726;23.342;2023-04-06T00:42:10;73616.66;;;-142.70;68.97
6224;BME280;3145;42.726;23.342;2023-04-06T00:44:38;73606.59;;;-142.70;68.86
6224;BME280;3145;42.726;23.342;2023-04-06T00:47:04;73592.50;;;-142.70;69.12
6224;BME280;3145;42.726;23.342;2023-04-06T00:49:32;73588.47;;;-142.70;68.44
6224;BME280;3145;42.726;23.342;2023-04-06T00:51:59;73576.38;;;-142.70;68.54
6224;BME280;3145;42.726;23.342;2023-04-06T00:54:26;73576.38;;;-142.70;68.66
6224;BME280;3145;42.726;23.342;2023-04-06T00:56:53;73576.38;;;-142.70;68.13
6224;BME280;3145;42.726;23.342;2023-04-06T00:59:21;73576.38;;;-142.70;67.36
6224;BME280;3145;42.726;23.342;2023-04-06T01:01:48;73576.38;;;-142.70;67.12
6224;BME280;3145;42.726;23.342;2023-04-06T01:04:15;73570.31;;;-142.70;67.72
6224;BME280;3145;42.726;23.342;2023-04-06T01:06:42;73552.19;;;-142.70;68.36
6224;BME280;3145;42.726;23.342;2023-04-06T01:09:08;73548.16;;;-142.70;68.27
6224;BME280;3145;42.726;23.342;2023-04-06T01:11:35;73534.06;;;-142.70;68.18
6224;BME280;3145;42.726;23.342;2023-04-06T01:14:03;73530.03;;;-142.70;67.39
6224;BME280;3145;42.726;23.342;2023-04-06T01:16:31;73542.13;;;-142.70;66.77
6224;BME280;3145;42.726;23.342;2023-04-06T01:18:58;73542.13;;;-142.70;67.38
6224;BME280;3145;42.726;23.342;2023-04-06T01:21:25;73552.19;;;-142.70;66.88
6224;BME280;3145;42.726;23.342;2023-04-06T01:23:53;73560.25;;;-142.70;66.71
6224;BME280;3145;42.726;23.342;2023-04-06T01:26:20;73554.19;;;-142.70;66.71
6224;BME280;3145;42.726;23.342;2023-04-06T01:28:46;73558.22;;;-142.70;67.02
6224;BME280;3145;42.726;23.342;2023-04-06T01:31:13;73558.22;;;-142.70;67.00
6224;BME280;3145;42.726;23.342;2023-04-06T01:33:40;73566.28;;;-142.70;66.32
6224;BME280;3145;42.726;23.342;2023-04-06T01:36:07;73582.41;;;-142.70;66.93
6224;BME280;3145;42.726;23.342;2023-04-06T01:38:34;73592.50;;;-142.70;66.93
6224;BME280;3145;42.726;23.342;2023-04-06T01:41:02;73594.50;;;-142.70;67.13
6224;BME280;3145;42.726;23.342;2023-04-06T01:43:30;73576.38;;;-142.70;67.20
6224;BME280;3145;42.726;23.342;2023-04-06T01:45:56;73582.41;;;-142.70;67.49
6224;BME280;3145;42.726;23.342;2023-04-06T01:48:23;73586.44;;;-142.70;67.23
6224;BME280;3145;42.726;23.342;2023-04-06T01:50:50;73572.34;;;-142.70;67.92
6224;BME280;3145;42.726;23.342;2023-04-06T01:53:17;73574.34;;;-142.70;68.01
6224;BME280;3145;42.726;23.342;2023-04-06T01:55:44;73556.22;;;-142.70;68.47
6224;BME280;3145;42.726;23.342;2023-04-06T01:58:12;73568.31;;;-142.70;67.14
6224;BME280;3145;42.726;23.342;2023-04-06T02:00:39;73572.34;;;-142.70;67.28
6224;BME280;3145;42.726;23.342;2023-04-06T02:03:06;73556.22;;;-142.70;67.61
6224;BME280;3145;42.726;23.342;2023-04-06T02:05:33;73554.19;;;-142.70;68.01
6224;BME280;3145;42.726;23.342;2023-04-06T02:08:03;73556.22;;;-142.70;67.15
6224;BME280;3145;42.726;23.342;2023-04-06T02:10:30;73566.28;;;-142.70;67.22
6224;BME280;3145;42.726;23.342;2023-04-06T02:12:56;73564.28;;;-142.70;67.57
6224;BME280;3145;42.726;23.342;2023-04-06T02:15:25;73556.22;;;-142.70;67.33
6224;BME280;3145;42.726;23.342;2023-04-06T02:17:52;73556.22;;;-142.70;67.73
6224;BME280;3145;42.726;23.342;2023-04-06T02:20:19;73546.13;;;-142.70;68.04
6224;BME280;3145;42.726;23.342;2023-04-06T02:22:45;73554.19;;;-142.70;67.99
6224;BME280;3145;42.726;23.342;2023-04-06T02:25:12;73536.06;;;-142.70;68.13
6224;BME280;3145;42.726;23.342;2023-04-06T02:27:39;73532.03;;;-142.70;67.61
6224;BME280;3145;42.726;23.342;2023-04-06T02:30:07;73546.13;;;-142.70;67.92
6224;BME280;3145;42.726;23.342;2023-04-06T02:32:35;73554.19;;;-142.70;67.09
6224;BME280;3145;42.726;23.342;2023-04-06T02:35:02;73552.19;;;-142.70;67.61
6224;BME280;3145;42.726;23.342;2023-04-06T02:37:29;73556.22;;;-142.70;67.57
6224;BME280;3145;42.726;23.342;2023-04-06T02:39:56;73552.19;;;-142.70;68.11
6224;BME280;3145;42.726;23.342;2023-04-06T02:42:22;73552.19;;;-142.70;67.74
6224;BME280;3145;42.726;23.342;2023-04-06T02:44:49;73546.13;;;-142.70;68.41
6224;BME280;3145;42.726;23.342;2023-04-06T02:47:16;73540.09;;;-142.70;68.23
6224;BME280;3145;42.726;23.342;2023-04-06T02:49:44;73538.09;;;-142.70;68.26
6224;BME280;3145;42.726;23.342;2023-04-06T02:52:11;73544.13;;;-142.70;67.88
6224;BME280;3145;42.726;23.342;2023-04-06T02:54:38;73540.09;;;-142.70;67.71
6224;BME280;3145;42.726;23.342;2023-04-06T02:57:04;73534.06;;;-142.70;67.99
6224;BME280;3145;42.726;23.342;2023-04-06T02:59:31;73540.09;;;-142.70;68.06
6224;BME280;3145;42.726;23.342;2023-04-06T03:01:58;73532.03;;;-142.70;67.62
6224;BME280;3145;42.726;23.342;2023-04-06T03:04:25;73536.06;;;-142.70;67.74
6224;BME280;3145;42.726;23.342;2023-04-06T03:06:54;73552.19;;;-142.70;67.39
6224;BME280;3145;42.726;23.342;2023-04-06T03:09:21;73536.06;;;-142.70;67.76
6224;BME280;3145;42.726;23.342;2023-04-06T03:11:48;73564.28;;;-142.70;67.15
6224;BME280;3145;42.726;23.342;2023-04-06T03:14:14;73564.28;;;-142.70;67.39
6224;BME280;3145;42.726;23.342;2023-04-06T03:16:42;73552.19;;;-142.70;68.21
6224;BME280;3145;42.726;23.342;2023-04-06T03:19:09;73552.19;;;-142.70;67.50
6224;BME280;3145;42.726;23.342;2023-04-06T03:21:39;73548.16;;;-142.70;67.28
6224;BME280;3145;42.726;23.342;2023-04-06T03:24:08;73548.16;;;-142.70;67.50
6224;BME280;3145;42.726;23.342;2023-04-06T03:26:34;73552.19;;;-142.70;67.23
6224;BME280;3145;42.726;23.342;2023-04-06T03:29:01;73548.16;;;-142.70;67.38
6224;BME280;3145;42.726;23.342;2023-04-06T03:31:28;73544.13;;;-142.70;67.34
6224;BME280;3145;42.726;23.342;2023-04-06T03:33:55;73552.19;;;-142.70;66.70
6224;BME280;3145;42.726;23.342;2023-04-06T03:36:22;73552.19;;;-142.70;65.95
6224;BME280;3145;42.726;23.342;2023-04-06T03:38:49;73544.13;;;-142.70;66.42
6224;BME280;3145;42.726;23.342;2023-04-06T03:41:17;73536.06;;;-142.70;66.07
6224;BME280;3145;42.726;23.342;2023-04-06T03:43:44;73536.06;;;-142.70;66.22
6224;BME280;3145;42.726;23.342;2023-04-06T03:46:11;73536.06;;;-142.70;66.48
6224;BME280;3145;42.726;23.342;2023-04-06T03:48:37;73530.03;;;-142.70;66.25
6224;BME280;3145;42.726;23.342;2023-04-06T03:51:04;73530.03;;;-142.70;66.92
6224;BME280;3145;42.726;23.342;2023-04-06T03:53:31;73523.97;;;-142.70;66.43
6224;BME280;3145;42.726;23.342;2023-04-06T03:55:58;73519.94;;;-142.70;66.07
6224;BME280;3145;42.726;23.342;2023-04-06T03:58:26;73528.00;;;-142.70;66.32
6224;BME280;3145;42.726;23.342;2023-04-06T04:00:53;73526.00;;;-142.70;66.98
6224;BME280;3145;42.726;23.342;2023-04-06T04:03:20;73519.94;;;-142.70;67.33
6224;BME280;3145;42.726;23.342;2023-04-06T04:05:48;73515.91;;;-142.70;67.43
6224;BME280;3145;42.726;23.342;2023-04-06T04:08:15;73534.06;;;-142.70;66.93
6224;BME280;3145;42.726;23.342;2023-04-06T04:10:42;73528.00;;;-142.70;67.11
6224;BME280;3145;42.726;23.342;2023-04-06T04:13:09;73556.22;;;-142.70;67.36
6224;BME280;3145;42.726;23.342;2023-04-06T04:15:37;73544.13;;;-142.70;67.12
6224;BME280;3145;42.726;23.342;2023-04-06T04:18:04;73540.09;;;-142.70;67.28
6224;BME280;3145;42.726;23.342;2023-04-06T04:20:30;73540.09;;;-142.70;67.41
6224;BME280;3145;42.726;23.342;2023-04-06T04:22:57;73523.97;;;-142.70;68.18
6224;BME280;3145;42.726;23.342;2023-04-06T04:25:24;73511.88;;;-142.70;68.21
6224;BME280;3145;42.726;23.342;2023-04-06T04:27:51;73503.81;;;-142.70;68.23
6224;BME280;3145;42.726;23.342;2023-04-06T04:30:18;73495.75;;;-142.70;68.08
6224;BME280;3145;42.726;23.342;2023-04-06T04:32:46;73483.69;;;-142.70;68.34
6224;BME280;3145;42.726;23.342;2023-04-06T04:35:13;73433.28;;;-142.70;71.22
6224;BME280;3145;42.726;23.342;2023-04-06T04:37:40;73415.16;;;-142.70;70.85
6224;BME280;3145;42.726;23.342;2023-04-06T04:40:08;73413.16;;;-142.70;68.75
6224;BME280;3145;42.726;23.342;2023-04-06T04:42:35;73407.09;;;-142.70;67.17
6224;BME280;3145;42.726;23.342;2023-04-06T04:45:02;73419.19;;;-142.70;66.50
6224;BME280;3145;42.726;23.342;2023-04-06T04:47:28;73419.19;;;-142.70;66.81
6224;BME280;3145;42.726;23.342;2023-04-06T04:49:57;73433.28;;;-142.70;66.09
6224;BME280;3145;42.726;23.342;2023-04-06T04:52:23;73443.38;;;-142.70;65.79
6224;BME280;3145;42.726;23.342;2023-04-06T04:54:50;73447.41;;;-142.70;66.01
6224;BME280;3145;42.726;23.342;2023-04-06T04:57:17;73435.31;;;-142.70;66.92
6224;BME280;3145;42.726;23.342;2023-04-06T04:59:43;73427.25;;;-142.70;67.22
6224;BME280;3145;42.726;23.342;2023-04-06T05:02:10;73435.31;;;-142.70;66.57
6224;BME280;3145;42.726;23.342;2023-04-06T05:04:37;73427.25;;;-142.70;66.52
6224;BME280;3145;42.726;23.342;2023-04-06T05:07:06;73431.28;;;-142.70;66.58
6224;BME280;3145;42.726;23.342;2023-04-06T05:09:34;73423.22;;;-142.70;66.42
6224;BME280;3145;42.726;23.342;2023-04-06T05:12:01;73423.22;;;-142.70;66.04
6224;BME280;3145;42.726;23.342;2023-04-06T05:14:28;73419.19;;;-142.70;65.86
6224;BME280;3145;42.726;23.342;2023-04-06T05:16:55;73417.19;;;-142.70;66.30
6224;BME280;3145;42.726;23.342;2023-04-06T05:19:22;73417.19;;;-142.70;66.30
6224;BME280;3145;42.726;23.342;2023-04-06T05:21:49;73433.28;;;-142.70;65.78
6224;BME280;3145;42.726;23.342;2023-04-06T05:24:20;73435.31;;;-142.70;66.35
6224;BME280;3145;42.726;23.342;2023-04-06T05:26:48;73435.31;;;-142.70;66.00
6224;BME280;3145;42.726;23.342;2023-04-06T05:29:16;73447.41;;;-142.70;65.76
6224;BME280;3145;42.726;23.342;2023-04-06T05:31:43;73437.31;;;-142.70;66.15
6224;BME280;3145;42.726;23.342;2023-04-06T05:34:10;73443.38;;;-142.70;65.80
6224;BME280;3145;42.726;23.342;2023-04-06T05:36:37;73439.34;;;-142.70;65.57
6224;BME280;3145;42.726;23.342;2023-04-06T05:39:05;73447.41;;;-142.70;65.48
6224;BME280;3145;42.726;23.342;2023-04-06T05:41:33;73443.38;;;-142.70;65.78
6224;BME280;3145;42.726;23.342;2023-04-06T05:44:00;73459.50;;;-142.70;65.64
6224;BME280;3145;42.726;23.342;2023-04-06T05:46:27;73451.44;;;-142.70;65.34
6224;BME280;3145;42.726;23.342;2023-04-06T05:48:54;73469.56;;;-142.70;66.01
6224;BME280;3145;42.726;23.342;2023-04-06T05:51:20;73451.44;;;-142.70;66.77
6224;BME280;3145;42.726;23.342;2023-04-06T05:53:47;73445.38;;;-142.70;65.89
6224;BME280;3145;42.726;23.342;2023-04-06T05:56:14;73459.50;;;-142.70;65.92
6224;BME280;3145;42.726;23.342;2023-04-06T05:58:43;73447.41;;;-142.70;65.89
6224;BME280;3145;42.726;23.342;2023-04-06T06:01:10;73439.34;;;-142.70;66.00
6224;BME280;3145;42.726;23.342;2023-04-06T06:03:37;73437.31;;;-142.70;65.94
6224;BME280;3145;42.726;23.342;2023-04-06T06:06:05;73437.31;;;-142.70;65.36
6224;BME280;3145;42.726;23.342;2023-04-06T06:08:32;73439.34;;;-142.70;65.72
6224;BME280;3145;42.726;23.342;2023-04-06T06:10:58;73441.34;;;-142.70;65.90
6224;BME280;3145;42.726;23.342;2023-04-06T06:13:25;73427.25;;;-142.70;65.87
6224;BME280;3145;42.726;23.342;2023-04-06T06:15:54;73411.13;;;-142.70;66.08
6224;BME280;3145;42.726;23.342;2023-04-06T06:18:20;73403.06;;;-142.70;65.74
6224;BME280;3145;42.726;23.342;2023-04-06T06:20:47;73439.34;;;-142.70;65.54
6224;BME280;3145;42.726;23.342;2023-04-06T06:23:14;73411.13;;;-142.70;65.43
6224;BME280;3145;42.726;23.342;2023-04-06T06:25:41;73403.06;;;-142.70;65.27
6224;BME280;3145;42.726;23.342;2023-04-06T06:28:07;73405.09;;;-142.70;65.17
6224;BME280;3145;42.726;23.342;2023-04-06T06:30:34;73399.03;;;-142.70;65.01
6224;BME280;3145;42.726;23.342;2023-04-06T06:33:02;73395.00;;;-142.70;64.67
6224;BME280;3145;42.726;23.342;2023-04-06T06:35:29;73380.91;;;-142.70;64.78
6224;BME280;3145;42.726;23.342;2023-04-06T06:37:56;73376.88;;;-142.70;64.61
6224;BME280;3145;42.726;23.342;2023-04-06T06:40:23;73382.91;;;-142.70;63.93
6224;BME280;3145;42.726;23.342;2023-04-06T06:42:51;73378.88;;;-142.70;63.86
6224;BME280;3145;42.726;23.342;2023-04-06T06:45:18;73374.88;;;-142.70;64.05
6224;BME280;3145;42.726;23.342;2023-04-06T06:47:45;73366.81;;;-142.70;63.52
6224;BME280;3145;42.726;23.342;2023-04-06T06:50:14;73372.84;;;-142.70;63.06
6224;BME280;3145;42.726;23.342;2023-04-06T06:52:40;73386.94;;;-142.70;63.07
6224;BME280;3145;42.726;23.342;2023-04-06T06:55:09;73378.88;;;-142.70;62.77
6224;BME280;3145;42.726;23.342;2023-04-06T06:57:36;73378.88;;;-142.70;62.17
6224;BME280;3145;42.726;23.342;2023-04-06T07:00:04;73378.88;;;-142.70;61.59
6224;BME280;3145;42.726;23.342;2023-04-06T07:02:34;73366.81;;;-142.70;61.51
6224;BME280;3145;42.726;23.342;2023-04-06T07:05:00;73358.75;;;-142.70;61.23
6224;BME280;3145;42.726;23.342;2023-04-06T07:07:29;73344.63;;;-142.70;61.05
6224;BME280;3145;42.726;23.342;2023-04-06T07:09:56;73358.75;;;-142.70;60.68
6224;BME280;3145;42.726;23.342;2023-04-06T07:12:22;73364.78;;;-142.70;60.13
6224;BME280;3145;42.726;23.342;2023-04-06T07:14:49;73370.84;;;-142.70;60.05
6224;BME280;3145;42.726;23.342;2023-04-06T07:17:16;73360.75;;;-142.70;60.79
6224;BME280;3145;42.726;23.342;2023-04-06T07:19:43;73346.66;;;-142.70;60.72
6224;BME280;3145;42.726;23.342;2023-04-06T07:22:10;73330.53;;;-142.70;59.88
6224;BME280;3145;42.726;23.342;2023-04-06T07:24:38;73338.59;;;-142.70;59.53
6224;BME280;3145;42.726;23.342;2023-04-06T07:27:05;73322.47;;;-142.70;59.04
6224;BME280;3145;42.726;23.342;2023-04-06T07:29:32;73326.50;;;-142.70;58.76
6224;BME280;3145;42.726;23.342;2023-04-06T07:31:59;73334.56;;;-142.70;58.62
6224;BME280;3145;42.726;23.342;2023-04-06T07:34:26;73328.50;;;-142.70;58.67
6224;BME280;3145;42.726;23.342;2023-04-06T07:36:53;73310.38;;;-142.70;58.98
6224;BME280;3145;42.726;23.342;2023-04-06T07:39:19;73282.16;;;-142.70;58.63
6224;BME280;3145;42.726;23.342;2023-04-06T07:41:48;73258.00;;;-142.70;57.79
6224;BME280;3145;42.726;23.342;2023-04-06T07:44:15;73225.75;;;-142.70;57.57
6224;BME280;3145;42.726;23.342;2023-04-06T07:46:41;73201.56;;;-142.70;56.50
6224;BME280;3145;42.726;23.342;2023-04-06T07:49:08;73189.47;;;-142.70;55.45
6224;BME280;3145;42.726;23.342;2023-04-06T07:51:36;73169.34;;;-142.70;54.42
6224;BME280;3145;42.726;23.342;2023-04-06T07:54:03;73133.06;;;-142.70;53.51
6224;BME280;3145;42.726;23.342;2023-04-06T07:56:30;73072.63;;;-142.70;52.63
6224;BME280;3145;42.726;23.342;2023-04-06T07:58:58;73062.56;;;-142.70;50.44
6224;BME280;3145;42.726;23.342;2023-04-06T08:01:24;73078.66;;;-142.70;49.85
6224;BME280;3145;42.726;23.342;2023-04-06T08:03:51;73056.50;;;-142.70;50.19
6224;BME280;3145;42.726;23.342;2023-04-06T08:06:20;73048.44;;;-142.70;49.39
6224;BME280;3145;42.726;23.342;2023-04-06T08:08:47;73026.28;;;-142.70;49.33
6224;BME280;3145;42.726;23.342;2023-04-06T08:11:14;73032.31;;;-142.70;49.51
6224;BME280;3145;42.726;23.342;2023-04-06T08:13:41;72996.06;;;-142.70;48.60
6224;BME280;3145;42.726;23.342;2023-04-06T08:16:09;72967.84;;;-142.70;48.10
6224;BME280;3145;42.726;23.342;2023-04-06T08:18:36;72963.81;;;-142.70;47.82
6224;BME280;3145;42.726;23.342;2023-04-06T08:21:03;72963.81;;;-142.70;47.52
6224;BME280;3145;42.726;23.342;2023-04-06T08:23:29;72963.81;;;-142.70;46.41
6224;BME280;3145;42.726;23.342;2023-04-06T08:25:56;72971.88;;;-142.70;46.51
6224;BME280;3145;42.726;23.342;2023-04-06T08:28:23;72961.81;;;-142.70;46.68
6224;BME280;3145;42.726;23.342;2023-04-06T08:30:50;72971.88;;;-142.70;46.74
6224;BME280;3145;42.726;23.342;2023-04-06T08:33:18;72955.78;;;-142.70;46.09
6224;BME280;3145;42.726;23.342;2023-04-06T08:35:44;72945.69;;;-142.70;46.48
6224;BME280;3145;42.726;23.342;2023-04-06T08:38:11;72913.47;;;-142.70;45.86
6224;BME280;3145;42.726;23.342;2023-04-06T08:40:39;72955.78;;;-142.70;45.70
6224;BME280;3145;42.726;23.342;2023-04-06T08:43:08;72931.59;;;-142.70;45.87
6224;BME280;3145;42.726;23.342;2023-04-06T08:45:37;72903.38;;;-142.70;45.73
6224;BME280;3145;42.726;23.342;2023-04-06T08:48:05;72901.38;;;-142.70;45.43
6224;BME280;3145;42.726;23.342;2023-04-06T08:50:34;72923.53;;;-142.70;44.89
6224;BME280;3145;42.726;23.342;2023-04-06T08:53:01;72895.31;;;-142.70;44.76
6224;BME280;3145;42.726;23.342;2023-04-06T08:55:29;72859.06;;;-142.70;44.32
6224;BME280;3145;42.726;23.342;2023-04-06T08:57:56;72861.06;;;-142.70;44.12
6224;BME280;3145;42.726;23.342;2023-04-06T09:00:24;72794.59;;;-142.70;44.20
6224;BME280;3145;42.726;23.342;2023-04-06T09:02:53;72754.28;;;-142.70;43.46
6224;BME280;3145;42.726;23.342;2023-04-06T09:05:24;72742.22;;;-142.70;42.25
6224;BME280;3145;42.726;23.342;2023-04-06T09:07:53;72756.31;;;-142.70;42.13
6224;BME280;3145;42.726;23.342;2023-04-06T09:10:19;72732.13;;;-142.70;42.36
6224;BME280;3145;42.726;23.342;2023-04-06T09:12:49;72724.06;;;-142.70;42.36
6224;BME280;3145;42.726;23.342;2023-04-06T09:15:20;72714.00;;;-142.70;41.77
6224;BME280;3145;42.726;23.342;2023-04-06T09:17:47;72705.94;;;-142.70;41.60
6224;BME280;3145;42.726;23.342;2023-04-06T09:20:14;72746.25;;;-142.70;41.93
6224;BME280;3145;42.726;23.342;2023-04-06T09:22:42;72772.44;;;-142.70;41.70
6224;BME280;3145;42.726;23.342;2023-04-06T09:25:18;72784.53;;;-142.70;42.47
6224;BME280;3145;42.726;23.342;2023-04-06T09:27:45;72861.06;;;-142.70;43.13
6224;BME280;3145;42.726;23.342;2023-04-06T09:30:13;72826.81;;;-142.70;42.73
6224;BME280;3145;42.726;23.342;2023-04-06T09:32:46;72867.13;;;-142.70;42.25
6224;BME280;3145;42.726;23.342;2023-04-06T09:35:13;72871.16;;;-142.70;42.51
6224;BME280;3145;42.726;23.342;2023-04-06T09:37:40;72867.13;;;-142.70;42.74
6224;BME280;3145;42.726;23.342;2023-04-06T09:40:10;72881.22;;;-142.70;42.35
6224;BME280;3145;42.726;23.342;2023-04-06T09:42:36;72877.19;;;-142.70;42.79
6224;BME280;3145;42.726;23.342;2023-04-06T09:45:04;72895.31;;;-142.70;42.52
6224;BME280;3145;42.726;23.342;2023-04-06T09:47:31;72887.25;;;-142.70;42.98
6224;BME280;3145;42.726;23.342;2023-04-06T09:49:59;72891.28;;;-142.70;42.97
6224;BME280;3145;42.726;23.342;2023-04-06T09:52:29;72885.25;;;-142.70;43.01
6224;BME280;3145;42.726;23.342;2023-04-06T09:55:01;72903.38;;;-142.70;43.11
6224;BME280;3145;42.726;23.342;2023-04-06T09:57:32;72919.50;;;-142.70;43.05
6224;BME280;3145;42.726;23.342;2023-04-06T10:00:04;72899.34;;;-142.70;43.21
6224;BME280;3145;42.726;23.342;2023-04-06T10:02:41;72867.13;;;-142.70;43.00
6224;BME280;3145;42.726;23.342;2023-04-06T10:05:18;72879.22;;;-142.70;42.42
6224;BME280;3145;42.726;23.342;2023-04-06T10:07:47;72863.09;;;-142.70;42.57
6224;BME280;3145;42.726;23.342;2023-04-06T10:10:16;72838.91;;;-142.70;42.90
6224;BME280;3145;42.726;23.342;2023-04-06T10:12:45;72826.81;;;-142.70;43.29
6224;BME280;3145;42.726;23.342;2023-04-06T10:15:14;72802.66;;;-142.70;42.21
6224;BME280;3145;42.726;23.342;2023-04-06T10:17:41;72776.47;;;-142.70;41.26
6224;BME280;3145;42.726;23.342;2023-04-06T10:20:11;72786.53;;;-142.70;40.72
6224;BME280;3145;42.726;23.342;2023-04-06T10:22:43;72752.28;;;-142.70;41.65
6224;BME280;3145;42.726;23.342;2023-04-06T10:25:16;72758.31;;;-142.70;40.95
6224;BME280;3145;42.726;23.342;2023-04-06T10:27:43;72730.13;;;-142.70;40.53
6224;BME280;3145;42.726;23.342;2023-04-06T10:30:15;72726.09;;;-142.70;39.59
6224;BME280;3145;42.726;23.342;2023-04-06T10:32:42;72671.69;;;-142.70;40.24
6224;BME280;3145;42.726;23.342;2023-04-06T10:35:10;72601.19;;;-142.70;39.71
6224;BME280;3145;42.726;23.342;2023-04-06T10:37:49;72607.22;;;-142.70;38.61
6224;BME280;3145;42.726;23.342;2023-04-06T10:40:22;72556.88;;;-142.70;38.73
6224;BME280;3145;42.726;23.342;2023-04-06T10:42:49;72520.59;;;-142.70;37.92
6224;BME280;3145;42.726;23.342;2023-04-06T10:45:23;72510.53;;;-142.70;37.63
6224;BME280;3145;42.726;23.342;2023-04-06T10:47:52;72476.28;;;-142.70;37.62
6224;BME280;3145;42.726;23.342;2023-04-06T10:50:19;72518.59;;;-142.70;37.41
6224;BME280;3145;42.726;23.342;2023-04-06T10:52:46;72518.59;;;-142.70;37.92
6224;BME280;3145;42.726;23.342;2023-04-06T10:55:14;72518.59;;;-142.70;37.42
6224;BME280;3145;42.726;23.342;2023-04-06T10:57:41;72472.25;;;-142.70;37.17
6224;BME280;3145;42.726;23.342;2023-04-06T11:00:08;72444.06;;;-142.70;36.51
6224;BME280;3145;42.726;23.342;2023-04-06T11:02:37;72496.44;;;-142.70;37.43
6224;BME280;3145;42.726;23.342;2023-04-06T11:05:04;72560.91;;;-142.70;37.62
6224;BME280;3145;42.726;23.342;2023-04-06T11:07:31;72536.72;;;-142.70;37.67
6224;BME280;3145;42.726;23.342;2023-04-06T11:09:58;72516.56;;;-142.70;37.50
6224;BME280;3145;42.726;23.342;2023-04-06T11:12:26;72456.16;;;-142.70;37.22
6224;BME280;3145;42.726;23.342;2023-04-06T11:14:55;72478.31;;;-142.70;37.27
6224;BME280;3145;42.726;23.342;2023-04-06T11:17:26;72504.50;;;-142.70;36.89
6224;BME280;3145;42.726;23.342;2023-04-06T11:19:55;72502.47;;;-142.70;37.29
6224;BME280;3145;42.726;23.342;2023-04-06T11:22:21;72552.84;;;-142.70;37.70
6224;BME280;3145;42.726;23.342;2023-04-06T11:24:48;72560.91;;;-142.70;37.65
6224;BME280;3145;42.726;23.342;2023-04-06T11:27:16;72583.06;;;-142.70;38.17
6224;BME280;3145;42.726;23.342;2023-04-06T11:29:44;72589.09;;;-142.70;37.71
6224;BME280;3145;42.726;23.342;2023-04-06T11:32:20;72568.97;;;-142.70;37.81
6224;BME280;3145;42.726;23.342;2023-04-06T11:34:47;72572.97;;;-142.70;37.77
6224;BME280;3145;42.726;23.342;2023-04-06T11:37:15;72552.84;;;-142.70;37.99
6224;BME280;3145;42.726;23.342;2023-04-06T11:39:47;72558.88;;;-142.70;37.86
6224;BME280;3145;42.726;23.342;2023-04-06T11:42:21;72536.72;;;-142.70;38.25
6224;BME280;3145;42.726;23.342;2023-04-06T11:44:50;72526.66;;;-142.70;37.89
6224;BME280;3145;42.726;23.342;2023-04-06T11:47:18;72542.75;;;-142.70;37.88
6224;BME280;3145;42.726;23.342;2023-04-06T11:49:45;72564.94;;;-142.70;38.06
6224;BME280;3145;42.726;23.342;2023-04-06T11:52:18;72572.97;;;-142.70;37.48
6224;BME280;3145;42.726;23.342;2023-04-06T11:54:46;72542.75;;;-142.70;37.55
6224;BME280;3145;42.726;23.342;2023-04-06T11:57:14;72544.78;;;-142.70;37.26
6224;BME280;3145;42.726;23.342;2023-04-06T11:59:42;72508.53;;;-142.70;37.59
6224;BME280;3145;42.726;23.342;2023-04-06T12:02:09;72496.44;;;-142.70;37.65
6224;BME280;3145;42.726;23.342;2023-04-06T12:04:36;72508.53;;;-142.70;37.65
6224;BME280;3145;42.726;23.342;2023-04-06T12:07:03;72524.63;;;-142.70;37.72
6224;BME280;3145;42.726;23.342;2023-04-06T12:09:31;72520.59;;;-142.70;37.07
6224;BME280;3145;42.726;23.342;2023-04-06T12:12:00;72532.69;;;-142.70;37.17
6224;BME280;3145;42.726;23.342;2023-04-06T12:14:26;72550.81;;;-142.70;38.05
6224;BME280;3145;42.726;23.342;2023-04-06T12:16:53;72556.88;;;-142.70;37.98
6224;BME280;3145;42.726;23.342;2023-04-06T12:19:20;72540.75;;;-142.70;37.90
6224;BME280;3145;42.726;23.342;2023-04-06T12:21:50;72524.63;;;-142.70;38.05
6224;BME280;3145;42.726;23.342;2023-04-06T12:24:17;72518.59;;;-142.70;37.83
6224;BME280;3145;42.726;23.342;2023-04-06T12:26:46;72514.56;;;-142.70;38.21
6224;BME280;3145;42.726;23.342;2023-04-06T12:29:12;72544.78;;;-142.70;37.75
6224;BME280;3145;42.726;23.342;2023-04-06T12:31:40;72577.00;;;-142.70;38.08
6224;BME280;3145;42.726;23.342;2023-04-06T12:34:08;72599.16;;;-142.70;38.03
6224;BME280;3145;42.726;23.342;2023-04-06T12:36:36;72601.19;;;-142.70;38.47
6224;BME280;3145;42.726;23.342;2023-04-06T12:39:04;72589.09;;;-142.70;37.88
6224;BME280;3145;42.726;23.342;2023-04-06T12:41:31;72605.22;;;-142.70;37.97
6224;BME280;3145;42.726;23.342;2023-04-06T12:43:59;72615.28;;;-142.70;38.45
6224;BME280;3145;42.726;23.342;2023-04-06T12:46:27;72589.09;;;-142.70;38.31
6224;BME280;3145;42.726;23.342;2023-04-06T12:48:55;72621.34;;;-142.70;38.65
6224;BME280;3145;42.726;23.342;2023-04-06T12:51:23;72615.28;;;-142.70;38.19